Time;durP1;ratioP1;P1;durP2;ratioP2;P2;SDS_P1;SDS_P2;PMS_P1;PMS_P2;Temp;Humidity;BMP_temperature;BMP_pressure;BME280_temperature;BME280_humidity;BME280_pressure;Samples;Min_cycle;Max_cycle;Signal;HPM_P1;HPM_P2
2023/05/09 00:01:49;;;;;;;10.10;8.30;;;17.60;99.90;;;;;;4924769;29;20515;-81
2023/05/09 00:04:25;;;;;;;9.70;7.40;;;17.60;99.90;;;;;;4912274;29;20472;-82
2023/05/09 00:06:57;;;;;;;8.70;7.30;;;17.60;99.90;;;;;;4935398;29;20479;-82
2023/05/09 00:09:35;;;;;;;10.07;9.07;;;17.60;99.90;;;;;;4927260;29;20986;-82
2023/05/09 00:12:08;;;;;;;9.07;8.10;;;17.60;99.90;;;;;;4910145;29;20501;-82
2023/05/09 00:14:50;;;;;;;10.93;7.87;;;17.60;99.90;;;;;;4909794;29;20558;-81
2023/05/09 00:17:17;;;;;;;9.70;7.80;;;17.40;99.90;;;;;;4932789;29;20466;-84
2023/05/09 00:19:51;;;;;;;8.03;7.20;;;17.20;99.90;;;;;;4934621;29;20466;-83
2023/05/09 00:22:22;;;;;;;9.87;8.27;;;17.10;99.90;;;;;;4922326;29;21191;-83
2023/05/09 00:24:55;;;;;;;9.87;8.80;;;17.00;99.90;;;;;;4932050;29;20489;-83
2023/05/09 00:27:22;;;;;;;9.17;7.57;;;17.00;99.90;;;;;;4918679;29;20521;-83
2023/05/09 00:29:50;;;;;;;12.00;8.37;;;17.30;99.90;;;;;;4936409;29;20452;-83
2023/05/09 00:32:27;;;;;;;13.00;9.40;;;17.40;99.90;;;;;;4934834;29;20493;-83
2023/05/09 00:34:54;;;;;;;11.63;8.87;;;17.40;99.90;;;;;;4913248;29;20455;-84
2023/05/09 00:37:27;;;;;;;12.10;9.30;;;17.40;99.90;;;;;;4918365;29;20470;-84
2023/05/09 00:40:00;;;;;;;9.97;7.80;;;17.20;99.90;;;;;;4925201;29;20465;-84
2023/05/09 00:42:27;;;;;;;11.63;9.00;;;17.20;99.90;;;;;;4929327;29;20478;-82
2023/05/09 00:44:59;;;;;;;11.47;9.30;;;17.20;99.90;;;;;;4951694;29;20462;-83
2023/05/09 00:47:42;;;;;;;13.00;9.73;;;17.30;99.90;;;;;;4929747;29;20438;-84
2023/05/09 00:50:12;;;;;;;12.07;9.30;;;17.30;99.90;;;;;;4920760;29;20497;-83
2023/05/09 00:52:42;;;;;;;13.30;9.23;;;17.20;99.90;;;;;;4918325;29;20494;-84
2023/05/09 00:55:10;;;;;;;12.90;10.47;;;17.10;99.90;;;;;;4921321;29;20484;-82
2023/05/09 00:57:37;;;;;;;13.90;9.07;;;17.00;99.90;;;;;;4936190;29;20455;-83
2023/05/09 01:00:05;;;;;;;10.97;9.70;;;17.00;99.90;;;;;;4937574;29;20468;-82
2023/05/09 01:02:31;;;;;;;11.27;9.47;;;17.20;99.90;;;;;;4936555;29;20474;-83
2023/05/09 01:04:58;;;;;;;11.77;9.30;;;17.20;99.90;;;;;;4921678;29;20466;-84
2023/05/09 01:07:36;;;;;;;11.03;9.20;;;17.30;99.90;;;;;;4914656;29;20480;-82
2023/05/09 01:10:15;;;;;;;11.80;9.00;;;17.60;99.90;;;;;;4922838;29;20466;-83
2023/05/09 01:12:54;;;;;;;11.40;9.30;;;17.60;99.90;;;;;;4925523;29;20493;-82
2023/05/09 01:15:38;;;;;;;12.37;10.20;;;17.70;99.90;;;;;;4924036;29;20446;-83
2023/05/09 01:18:04;;;;;;;12.60;10.70;;;17.60;99.90;;;;;;4926946;29;20470;-82
2023/05/09 01:20:37;;;;;;;13.90;10.20;;;17.50;99.90;;;;;;4925161;29;20471;-83
2023/05/09 01:23:14;;;;;;;10.83;9.13;;;17.40;99.90;;;;;;4917041;29;20497;-83
2023/05/09 01:26:04;;;;;;;12.67;10.47;;;17.40;99.90;;;;;;4927551;29;20975;-83
2023/05/09 01:28:44;;;;;;;13.00;9.30;;;17.50;99.90;;;;;;4935813;29;20454;-84
2023/05/09 01:31:11;;;;;;;13.70;10.27;;;17.40;99.90;;;;;;4922205;29;20984;-82
2023/05/09 01:33:41;;;;;;;10.93;9.80;;;17.30;99.90;;;;;;4922648;29;20485;-84
2023/05/09 01:36:13;;;;;;;12.33;9.90;;;17.20;99.90;;;;;;4921195;29;20518;-84
2023/05/09 01:38:43;;;;;;;12.20;9.63;;;17.30;99.90;;;;;;4934672;29;20456;-83
2023/05/09 01:41:14;;;;;;;14.07;10.87;;;17.50;99.90;;;;;;4925595;29;20496;-82
2023/05/09 01:43:44;;;;;;;13.40;10.07;;;17.30;99.90;;;;;;4920967;29;20455;-83
2023/05/09 01:46:13;;;;;;;14.20;10.23;;;17.30;99.90;;;;;;4936890;29;20459;-81
2023/05/09 01:48:41;;;;;;;12.80;10.47;;;17.30;99.90;;;;;;4924832;29;20530;-81
2023/05/09 01:51:08;;;;;;;12.17;9.70;;;17.40;99.90;;;;;;4946768;29;20546;-81
2023/05/09 01:53:35;;;;;;;15.50;11.23;;;17.50;99.90;;;;;;4933433;29;20533;-82
2023/05/09 01:56:04;;;;;;;12.20;9.97;;;17.40;99.90;;;;;;4923056;29;20458;-83
2023/05/09 01:58:33;;;;;;;11.90;9.17;;;17.20;99.90;;;;;;4914885;29;20488;-82
2023/05/09 02:01:01;;;;;;;14.13;10.53;;;17.20;99.90;;;;;;4923316;29;21075;-83
2023/05/09 02:03:28;;;;;;;12.23;10.00;;;17.20;99.90;;;;;;4921055;29;20455;-83
2023/05/09 02:05:56;;;;;;;12.93;10.70;;;17.20;99.90;;;;;;4923900;29;20470;-83
2023/05/09 02:08:23;;;;;;;13.00;10.80;;;17.10;99.90;;;;;;4938308;29;20458;-83
2023/05/09 02:10:50;;;;;;;13.43;9.20;;;16.90;99.90;;;;;;4933149;29;20493;-83
2023/05/09 02:13:16;;;;;;;12.23;10.93;;;17.00;99.90;;;;;;4920348;29;20475;-83
2023/05/09 02:15:44;;;;;;;12.10;9.97;;;17.00;99.90;;;;;;4924740;29;20443;-82
2023/05/09 02:18:12;;;;;;;12.00;10.60;;;17.00;99.90;;;;;;4946567;29;20462;-82
2023/05/09 02:20:39;;;;;;;14.17;11.57;;;17.10;99.90;;;;;;4933717;29;20569;-83
2023/05/09 02:23:06;;;;;;;13.47;10.40;;;17.10;99.90;;;;;;4921251;29;20463;-83
2023/05/09 02:25:33;;;;;;;14.10;11.40;;;17.00;99.90;;;;;;4921835;29;21361;-81
2023/05/09 02:28:01;;;;;;;14.20;11.10;;;17.00;99.90;;;;;;4929078;29;20841;-83
2023/05/09 02:30:35;;;;;;;14.03;10.20;;;16.90;99.90;;;;;;4928040;29;20446;-82
2023/05/09 02:33:05;;;;;;;14.67;11.37;;;17.00;99.90;;;;;;4940906;29;20561;-82
2023/05/09 02:35:34;;;;;;;15.00;11.47;;;17.00;99.90;;;;;;4933003;29;20466;-81
2023/05/09 02:38:01;;;;;;;13.50;10.03;;;17.00;99.90;;;;;;4956633;29;20493;-83
2023/05/09 02:40:29;;;;;;;13.00;11.30;;;17.00;99.90;;;;;;4928919;29;20462;-82
2023/05/09 02:42:56;;;;;;;13.53;10.10;;;16.90;99.90;;;;;;4953506;29;20455;-82
2023/05/09 02:45:23;;;;;;;13.93;11.80;;;17.00;99.90;;;;;;4936763;29;20514;-82
2023/05/09 02:47:50;;;;;;;15.87;10.90;;;17.00;99.90;;;;;;4936493;29;20459;-82
2023/05/09 02:50:17;;;;;;;15.60;10.73;;;17.10;99.90;;;;;;4947637;29;20470;-81
2023/05/09 02:52:43;;;;;;;16.73;12.07;;;17.00;99.90;;;;;;4947131;29;20507;-81
2023/05/09 02:55:10;;;;;;;15.23;11.73;;;16.90;99.90;;;;;;4935530;29;20483;-82
2023/05/09 02:57:38;;;;;;;15.27;10.90;;;16.90;99.90;;;;;;4933007;29;20471;-81
2023/05/09 03:00:08;;;;;;;17.83;11.77;;;16.80;99.90;;;;;;4950938;29;20501;-83
2023/05/09 03:02:35;;;;;;;14.87;11.10;;;16.70;99.90;;;;;;4948757;29;20481;-81
2023/05/09 03:05:03;;;;;;;14.17;10.53;;;16.80;99.90;;;;;;4945048;29;20435;-83
2023/05/09 03:07:30;;;;;;;14.03;11.00;;;17.10;99.90;;;;;;4946481;29;20478;-83
2023/05/09 03:09:57;;;;;;;15.63;11.10;;;17.00;99.90;;;;;;4943238;29;20447;-82
2023/05/09 03:12:24;;;;;;;14.03;11.57;;;17.20;99.90;;;;;;4931038;29;20486;-84
2023/05/09 03:14:50;;;;;;;15.33;11.77;;;17.00;99.90;;;;;;4929535;29;20454;-82
2023/05/09 03:17:20;;;;;;;13.10;10.47;;;17.00;99.90;;;;;;4944000;29;20583;-83
2023/05/09 03:19:47;;;;;;;14.67;11.50;;;17.00;99.90;;;;;;4931786;29;20492;-83
2023/05/09 03:22:14;;;;;;;14.60;11.43;;;17.10;99.90;;;;;;4928684;29;20498;-83
2023/05/09 03:24:41;;;;;;;14.30;11.63;;;17.00;99.90;;;;;;4917410;29;20462;-84
2023/05/09 03:27:08;;;;;;;14.17;11.43;;;16.90;99.90;;;;;;4916149;29;20479;-84
2023/05/09 03:29:34;;;;;;;14.37;10.40;;;16.80;99.90;;;;;;4934918;29;20485;-84
2023/05/09 03:32:01;;;;;;;13.93;10.97;;;16.90;99.90;;;;;;4932769;29;20495;-84
2023/05/09 03:34:28;;;;;;;14.50;10.80;;;17.00;99.90;;;;;;4914341;29;20561;-84
2023/05/09 03:36:55;;;;;;;15.47;12.20;;;17.10;99.90;;;;;;4921827;29;20447;-83
2023/05/09 03:39:21;;;;;;;13.60;10.60;;;16.90;99.90;;;;;;4935936;29;20521;-84
2023/05/09 03:41:48;;;;;;;14.90;11.57;;;16.90;99.90;;;;;;4936259;29;20474;-84
2023/05/09 03:44:15;;;;;;;13.57;11.40;;;16.80;99.90;;;;;;4918678;29;20453;-84
2023/05/09 03:46:42;;;;;;;14.50;11.10;;;16.70;99.90;;;;;;4922463;29;20478;-84
2023/05/09 03:49:09;;;;;;;15.27;10.67;;;16.60;99.90;;;;;;4936300;29;20466;-84
2023/05/09 03:51:36;;;;;;;14.43;11.37;;;16.80;99.90;;;;;;4918426;29;20495;-83
2023/05/09 03:54:05;;;;;;;12.77;10.53;;;17.00;99.90;;;;;;4920351;29;20482;-83
2023/05/09 03:56:32;;;;;;;14.10;10.73;;;17.00;99.90;;;;;;4922632;29;20457;-83
2023/05/09 03:58:59;;;;;;;13.67;10.17;;;17.00;99.90;;;;;;4920464;29;20455;-84
2023/05/09 04:01:25;;;;;;;15.20;11.57;;;17.00;99.90;;;;;;4917887;29;20483;-84
2023/05/09 04:03:52;;;;;;;13.53;11.27;;;17.10;99.90;;;;;;4919916;29;20451;-84
2023/05/09 04:06:19;;;;;;;14.27;11.40;;;17.20;99.90;;;;;;4938243;29;20502;-82
2023/05/09 04:08:46;;;;;;;16.07;12.37;;;17.10;99.90;;;;;;4936749;29;20870;-82
2023/05/09 04:11:13;;;;;;;16.30;13.27;;;17.00;99.90;;;;;;4923616;29;21427;-83
2023/05/09 04:13:40;;;;;;;15.07;11.17;;;16.90;99.90;;;;;;4919324;29;20554;-83
2023/05/09 04:16:07;;;;;;;15.00;11.87;;;16.90;99.90;;;;;;4924859;29;20530;-84
2023/05/09 04:18:35;;;;;;;11.77;10.57;;;16.80;99.90;;;;;;4931600;29;20488;-84
2023/05/09 04:21:02;;;;;;;15.77;11.27;;;16.90;99.90;;;;;;4933547;29;20485;-84
2023/05/09 04:23:29;;;;;;;15.10;11.50;;;17.10;99.90;;;;;;4935033;29;20497;-83
2023/05/09 04:26:30;;;;;;;14.53;10.93;;;16.90;99.90;;;;;;4930690;29;20903;-84
2023/05/09 04:29:07;;;;;;;13.07;10.23;;;16.70;99.90;;;;;;4929431;29;20485;-82
2023/05/09 04:31:59;;;;;;;13.50;10.90;;;16.60;99.90;;;;;;4930739;29;20530;-82
2023/05/09 04:34:39;;;;;;;13.87;11.33;;;16.70;99.90;;;;;;4929777;29;20459;-82
2023/05/09 04:37:15;;;;;;;12.80;9.47;;;16.90;99.90;;;;;;4919486;29;20451;-83
2023/05/09 04:40:01;;;;;;;15.93;11.70;;;16.90;99.90;;;;;;4932308;29;20459;-82
2023/05/09 04:42:52;;;;;;;13.90;11.20;;;17.10;99.90;;;;;;4916661;29;20482;-83
2023/05/09 04:45:21;;;;;;;18.33;12.50;;;17.10;99.90;;;;;;4940684;29;20465;-82
2023/05/09 04:48:01;;;;;;;14.20;10.10;;;17.10;99.90;;;;;;4952077;28;20802;-82
2023/05/09 04:50:42;;;;;;;16.37;11.70;;;17.30;99.90;;;;;;4936147;29;20490;-82
2023/05/09 04:53:13;;;;;;;15.80;11.37;;;17.30;99.90;;;;;;4959988;29;20540;-83
2023/05/09 04:55:51;;;;;;;13.80;10.00;;;17.30;99.90;;;;;;4929836;29;20460;-84
2023/05/09 04:58:20;;;;;;;13.70;11.27;;;17.30;99.90;;;;;;4940028;29;20464;-83
2023/05/09 05:01:06;;;;;;;14.77;11.10;;;17.00;99.90;;;;;;4941064;29;20519;-84
2023/05/09 05:03:33;;;;;;;14.70;10.00;;;16.80;99.90;;;;;;4937055;29;20450;-83
2023/05/09 05:06:21;;;;;;;20.40;12.07;;;16.70;99.90;;;;;;4934330;29;20512;-84
2023/05/09 05:09:29;;;;;;;13.10;10.90;;;16.80;99.90;;;;;;4928615;29;20458;-83
2023/05/09 05:11:59;;;;;;;14.63;11.53;;;17.00;99.90;;;;;;4921819;29;20490;-83
2023/05/09 05:14:37;;;;;;;13.40;11.00;;;17.20;99.90;;;;;;4947994;29;20567;-83
2023/05/09 05:17:12;;;;;;;14.70;10.30;;;17.10;99.90;;;;;;4939789;29;20454;-82
2023/05/09 05:19:45;;;;;;;14.23;10.40;;;17.00;99.90;;;;;;4939230;29;20467;-81
2023/05/09 05:22:12;;;;;;;16.00;10.80;;;17.20;99.90;;;;;;4935271;29;20486;-81
2023/05/09 05:24:55;;;;;;;15.63;12.07;;;17.20;99.90;;;;;;4942300;28;20443;-82
2023/05/09 05:27:33;;;;;;;14.03;11.80;;;17.30;99.90;;;;;;4928606;29;21222;-81
2023/05/09 05:30:06;;;;;;;14.80;11.67;;;17.20;99.90;;;;;;4930511;29;20497;-82
2023/05/09 05:32:36;;;;;;;15.10;10.80;;;17.20;99.90;;;;;;4932824;29;20520;-82
2023/05/09 05:35:11;;;;;;;12.67;9.57;;;17.10;99.90;;;;;;4934188;29;20439;-82
2023/05/09 05:37:40;;;;;;;15.50;11.07;;;17.40;99.90;;;;;;4938572;29;20435;-81
2023/05/09 05:40:14;;;;;;;16.50;10.50;;;17.50;99.90;;;;;;4942329;29;20726;-81
2023/05/09 05:43:01;;;;;;;15.37;11.00;;;17.50;99.90;;;;;;4955134;29;20564;-81
2023/05/09 05:45:39;;;;;;;14.30;11.10;;;17.40;99.90;;;;;;4940201;29;20506;-81
2023/05/09 05:48:36;;;;;;;14.80;11.73;;;17.40;99.90;;;;;;4948976;29;20469;-84
2023/05/09 05:51:14;;;;;;;14.93;12.10;;;17.50;99.90;;;;;;4950844;29;20470;-82
2023/05/09 05:54:06;;;;;;;14.50;10.63;;;17.50;99.90;;;;;;4951666;29;20474;-84
2023/05/09 05:56:56;;;;;;;13.73;11.20;;;17.50;99.90;;;;;;4927492;29;20459;-83
2023/05/09 05:59:32;;;;;;;14.60;10.83;;;17.50;99.90;;;;;;4935363;29;20510;-82
2023/05/09 06:02:32;;;;;;;;;;;;;;;;;;;;;
2023/05/09 06:05:12;;;;;;;15.33;10.60;;;17.70;99.90;;;;;;4926873;29;20462;-84
2023/05/09 06:07:49;;;;;;;17.10;12.87;;;17.80;99.90;;;;;;4928993;29;20478;-84
2023/05/09 06:10:22;;;;;;;15.10;11.60;;;17.80;99.90;;;;;;4924907;29;20466;-84
2023/05/09 06:13:14;;;;;;;13.07;11.00;;;17.90;99.90;;;;;;4929214;29;20490;-84
2023/05/09 06:16:05;;;;;;;17.30;12.70;;;17.90;99.90;;;;;;4915698;29;20456;-82
2023/05/09 06:18:57;;;;;;;15.37;11.70;;;18.00;99.90;;;;;;4936379;29;20545;-84
2023/05/09 06:21:45;;;;;;;14.33;10.10;;;18.10;99.90;;;;;;4936150;29;20534;-83
2023/05/09 06:24:18;;;;;;;14.30;10.90;;;18.30;99.90;;;;;;4918045;29;20474;-84
2023/05/09 06:27:03;;;;;;;16.10;11.90;;;18.10;99.90;;;;;;4920961;29;20541;-84
2023/05/09 06:29:35;;;;;;;15.03;11.70;;;18.20;99.90;;;;;;4927155;29;20975;-83
2023/05/09 06:32:18;;;;;;;17.90;11.33;;;18.50;99.90;;;;;;4936668;29;20494;-83
2023/05/09 06:34:54;;;;;;;13.97;10.70;;;18.50;99.90;;;;;;4918897;29;21952;-82
2023/05/09 06:37:38;;;;;;;13.43;10.33;;;18.60;99.90;;;;;;4925073;29;20458;-83
2023/05/09 06:40:09;;;;;;;17.70;12.17;;;18.50;99.90;;;;;;4925175;29;20458;-82
2023/05/09 06:42:51;;;;;;;13.23;11.23;;;18.50;99.90;;;;;;4919770;29;20481;-83
2023/05/09 06:45:40;;;;;;;14.80;11.10;;;18.60;99.90;;;;;;4936633;29;20465;-83
2023/05/09 06:48:14;;;;;;;12.77;10.23;;;18.50;99.90;;;;;;4915428;29;20478;-82
2023/05/09 06:51:04;;;;;;;11.40;9.47;;;18.60;99.90;;;;;;4917462;29;20545;-82
2023/05/09 06:53:50;;;;;;;14.30;10.97;;;18.80;99.90;;;;;;4936060;29;20478;-83
2023/05/09 06:56:25;;;;;;;12.23;9.50;;;19.00;99.90;;;;;;4931895;29;20467;-82
2023/05/09 06:59:04;;;;;;;12.73;9.93;;;19.30;99.90;;;;;;4921887;29;20458;-84
2023/05/09 07:01:55;;;;;;;13.33;10.30;;;19.30;99.90;;;;;;4917719;29;20445;-83
2023/05/09 07:04:32;;;;;;;11.50;9.97;;;19.30;99.90;;;;;;4918596;29;20469;-84
2023/05/09 07:07:17;;;;;;;10.37;9.27;;;19.20;99.90;;;;;;4931612;29;20506;-83
2023/05/09 07:09:52;;;;;;;12.40;8.50;;;19.50;99.90;;;;;;4917684;29;20587;-84
2023/05/09 07:12:36;;;;;;;12.80;9.60;;;19.60;99.90;;;;;;4920933;29;20489;-83
2023/05/09 07:15:15;;;;;;;8.40;7.30;;;19.70;99.90;;;;;;4933914;29;20459;-84
2023/05/09 07:18:02;;;;;;;5.93;5.33;;;19.80;99.90;;;;;;4919287;29;20477;-83
2023/05/09 07:20:43;;;;;;;6.40;4.80;;;20.00;99.90;;;;;;4920524;29;21015;-84
2023/05/09 07:23:29;;;;;;;5.00;4.50;;;20.10;98.80;;;;;;4917201;29;20465;-83
2023/05/09 07:26:05;;;;;;;4.43;4.03;;;20.20;98.10;;;;;;4929617;29;20462;-82
2023/05/09 07:28:52;;;;;;;4.40;4.00;;;20.40;97.40;;;;;;4931676;29;20462;-83
2023/05/09 07:31:53;;;;;;;5.00;4.37;;;20.60;97.00;;;;;;4936959;29;20490;-83
2023/05/09 07:34:47;;;;;;;4.77;3.67;;;20.70;97.10;;;;;;4923249;29;20487;-84
2023/05/09 07:37:28;;;;;;;4.00;3.60;;;20.90;96.50;;;;;;4920293;29;20466;-84
2023/05/09 07:40:04;;;;;;;5.13;4.03;;;20.90;96.20;;;;;;4933969;29;20531;-84
2023/05/09 07:42:48;;;;;;;4.40;4.00;;;20.90;96.40;;;;;;4933603;29;20486;-83
2023/05/09 07:45:29;;;;;;;4.27;3.87;;;21.20;96.20;;;;;;4928137;29;20455;-83
2023/05/09 07:48:01;;;;;;;3.83;3.40;;;21.50;95.40;;;;;;4918070;29;20497;-84
2023/05/09 07:50:45;;;;;;;;;;;;;;;;;;;;;
2023/05/09 07:53:39;;;;;;;4.33;3.93;;;21.10;94.40;;;;;;4920625;29;20545;-84
2023/05/09 07:56:18;;;;;;;3.87;3.53;;;21.20;94.40;;;;;;4918631;29;20462;-84
2023/05/09 07:58:52;;;;;;;3.37;3.07;;;21.80;93.90;;;;;;4917405;29;20458;-84
2023/05/09 08:01:29;;;;;;;3.70;3.40;;;22.30;92.60;;;;;;4934363;29;20488;-83
2023/05/09 08:04:07;;;;;;;4.60;3.50;;;22.10;92.50;;;;;;4929922;29;20469;-82
2023/05/09 08:06:40;;;;;;;2.90;2.70;;;22.00;92.10;;;;;;4915182;29;20467;-83
2023/05/09 08:09:15;;;;;;;2.70;2.40;;;22.40;91.40;;;;;;4933775;29;20534;-82
2023/05/09 08:11:51;;;;;;;2.70;2.50;;;22.90;90.30;;;;;;4916827;29;20497;-84
2023/05/09 08:14:30;;;;;;;2.80;2.30;;;23.10;89.50;;;;;;4932122;29;20511;-83
2023/05/09 08:16:59;;;;;;;2.43;2.23;;;23.60;85.70;;;;;;4920502;29;20467;-83
2023/05/09 08:19:29;;;;;;;2.63;2.43;;;23.20;84.70;;;;;;4928329;29;20499;-82
2023/05/09 08:22:15;;;;;;;2.03;1.93;;;22.80;85.80;;;;;;4929390;29;20478;-82
2023/05/09 08:25:03;;;;;;;2.20;2.00;;;23.30;84.80;;;;;;4928021;29;20458;-83
2023/05/09 08:27:53;;;;;;;1.80;1.70;;;23.60;83.00;;;;;;4934704;29;20463;-84
2023/05/09 08:30:32;;;;;;;2.87;1.53;;;24.40;81.00;;;;;;4913996;29;20898;-83
2023/05/09 08:33:18;;;;;;;1.87;1.67;;;24.90;77.70;;;;;;4904752;29;20497;-83
2023/05/09 08:35:55;;;;;;;2.20;2.00;;;25.00;74.10;;;;;;4916245;29;20997;-84
2023/05/09 08:38:32;;;;;;;1.87;1.77;;;25.70;73.60;;;;;;4935623;29;20475;-84
2023/05/09 08:41:07;;;;;;;2.80;2.03;;;25.90;71.30;;;;;;4932928;29;20495;-84
2023/05/09 08:43:51;;;;;;;1.63;1.53;;;27.40;65.50;;;;;;4917364;29;20556;-84
2023/05/09 08:46:51;;;;;;;1.60;1.50;;;27.80;60.90;;;;;;4931347;29;20466;-84
2023/05/09 08:49:44;;;;;;;1.30;1.20;;;28.30;59.00;;;;;;4915138;29;20486;-84
2023/05/09 08:52:39;;;;;;;2.00;1.70;;;27.80;57.90;;;;;;4933317;29;20900;-84
2023/05/09 08:56:04;;;;;;;1.33;1.27;;;27.50;58.40;;;;;;4918569;29;20451;-84
2023/05/09 08:59:30;;;;;;;1.93;1.33;;;27.40;58.30;;;;;;4910687;29;20876;-81
2023/05/09 09:02:08;;;;;;;1.67;1.57;;;27.50;58.30;;;;;;4914741;29;20522;-84
2023/05/09 09:04:43;;;;;;;1.87;1.77;;;27.70;58.00;;;;;;4902713;29;20481;-83
2023/05/09 09:07:48;;;;;;;2.17;1.97;;;27.40;58.10;;;;;;4937124;29;20509;-83
2023/05/09 09:10:49;;;;;;;1.53;1.40;;;27.40;58.30;;;;;;4939793;28;20475;-82
2023/05/09 09:14:27;;;;;;;1.60;1.50;;;27.50;57.50;;;;;;4927450;29;20533;-83
2023/05/09 09:17:32;;;;;;;1.80;1.50;;;26.40;59.70;;;;;;4922463;29;20510;-83
2023/05/09 09:20:18;;;;;;;3.47;1.43;;;26.30;61.00;;;;;;4919751;29;20458;-83
2023/05/09 09:23:06;;;;;;;1.80;1.70;;;26.50;60.30;;;;;;4937159;29;20521;-82
2023/05/09 09:29:32;;;;;;;1.70;1.60;;;26.60;59.20;;;;;;4922227;29;20470;-83
2023/05/09 09:32:11;;;;;;;2.30;2.20;;;26.40;59.70;;;;;;4922495;29;21032;-83
2023/05/09 09:35:05;;;;;;;1.47;1.37;;;26.30;59.80;;;;;;4920963;29;20521;-81
2023/05/09 09:37:42;;;;;;;1.80;1.60;;;25.90;59.50;;;;;;4930975;29;20465;-82
2023/05/09 09:40:17;;;;;;;2.03;1.90;;;24.90;61.90;;;;;;4935324;29;20942;-83
2023/05/09 09:43:09;;;;;;;2.63;1.50;;;24.40;64.10;;;;;;4941116;29;20475;-83
2023/05/09 09:45:52;;;;;;;2.20;1.60;;;24.10;65.70;;;;;;4938351;29;20490;-82
2023/05/09 09:48:37;;;;;;;2.30;2.00;;;23.70;66.80;;;;;;4938542;29;20451;-83
2023/05/09 09:51:27;;;;;;;2.30;1.50;;;24.00;68.20;;;;;;4927981;29;20486;-84
2023/05/09 09:54:21;;;;;;;3.63;1.90;;;24.10;67.90;;;;;;4925514;29;20518;-83
2023/05/09 09:57:03;;;;;;;1.60;1.50;;;24.20;66.80;;;;;;4939847;29;20462;-84
2023/05/09 09:59:38;;;;;;;1.70;1.60;;;24.60;65.90;;;;;;4935166;29;20474;-83
2023/05/09 10:02:29;;;;;;;2.87;2.13;;;25.30;63.50;;;;;;4941096;29;20472;-84
2023/05/09 10:05:25;;;;;;;4.43;1.87;;;25.70;61.90;;;;;;4925412;29;20458;-83
2023/05/09 10:08:33;;;;;;;1.80;1.70;;;25.70;61.50;;;;;;4925740;29;20471;-84
2023/05/09 10:11:43;;;;;;;1.77;1.67;;;25.50;61.50;;;;;;4941534;29;20462;-83
2023/05/09 10:14:26;;;;;;;1.80;1.53;;;25.30;62.10;;;;;;4934335;29;20480;-82
2023/05/09 10:17:07;;;;;;;1.40;1.30;;;24.90;62.90;;;;;;4939524;29;20451;-81
2023/05/09 10:19:42;;;;;;;1.60;1.50;;;24.30;65.40;;;;;;4939303;29;20550;-81
2023/05/09 10:22:27;;;;;;;1.87;1.70;;;24.10;66.70;;;;;;4930534;29;20507;-82
2023/05/09 10:25:15;;;;;;;2.23;2.03;;;24.10;66.40;;;;;;4933346;29;20574;-85
2023/05/09 10:28:10;;;;;;;2.00;1.90;;;23.90;67.20;;;;;;4941497;29;20455;-83
2023/05/09 10:31:32;;;;;;;2.47;2.17;;;23.70;68.40;;;;;;4953768;28;20466;-84
2023/05/09 10:34:13;;;;;;;2.43;1.70;;;23.60;68.80;;;;;;4938340;29;20548;-84
2023/05/09 10:36:48;;;;;;;1.97;1.80;;;23.50;69.40;;;;;;4937917;29;20442;-83
2023/05/09 10:39:16;;;;;;;2.07;1.80;;;23.50;70.70;;;;;;4942247;29;21520;-83
2023/05/09 10:41:50;;;;;;;1.97;1.87;;;23.60;70.50;;;;;;4928266;29;20473;-83
2023/05/09 10:44:29;;;;;;;2.23;2.03;;;23.60;69.30;;;;;;4914982;29;20471;-84
2023/05/09 10:47:12;;;;;;;2.10;1.60;;;23.60;69.90;;;;;;4925280;29;20455;-83
2023/05/09 10:49:58;;;;;;;1.80;1.70;;;23.60;69.40;;;;;;4925029;29;20461;-84
2023/05/09 10:53:13;;;;;;;1.70;1.60;;;23.40;70.00;;;;;;4919723;29;20474;-84
2023/05/09 10:56:03;;;;;;;1.77;1.67;;;23.40;69.90;;;;;;4922765;29;20455;-83
2023/05/09 10:59:11;;;;;;;1.87;1.60;;;23.30;70.90;;;;;;4937182;29;20446;-84
2023/05/09 11:01:56;;;;;;;1.93;1.83;;;23.20;71.00;;;;;;4917225;29;20465;-84
2023/05/09 11:04:41;;;;;;;2.40;2.20;;;23.00;72.20;;;;;;4925530;29;20985;-83
2023/05/09 11:07:44;;;;;;;2.90;2.20;;;22.70;72.60;;;;;;4939250;29;20448;-82
2023/05/09 11:10:43;;;;;;;2.80;1.90;;;23.10;73.00;;;;;;4929067;29;20467;-83
2023/05/09 11:13:16;;;;;;;2.77;1.83;;;23.20;72.50;;;;;;4937989;29;20454;-82
2023/05/09 11:16:19;;;;;;;2.40;2.20;;;23.60;71.80;;;;;;4950154;29;20450;-83
2023/05/09 11:19:32;;;;;;;2.10;1.90;;;23.90;70.50;;;;;;4946578;28;20475;-83
2023/05/09 11:26:08;;;;;;;2.53;2.30;;;23.40;72.40;;;;;;4938356;29;20451;-83
2023/05/09 11:29:09;;;;;;;2.40;2.20;;;23.20;74.30;;;;;;4956502;29;20520;-84
2023/05/09 11:32:20;;;;;;;2.27;1.97;;;23.50;73.40;;;;;;4943193;29;20483;-81
2023/05/09 11:35:26;;;;;;;2.90;2.17;;;24.00;71.70;;;;;;4928488;29;20474;-81
2023/05/09 11:38:22;;;;;;;3.43;1.60;;;24.40;70.20;;;;;;4928226;29;20509;-83
2023/05/09 11:40:57;;;;;;;2.20;2.00;;;24.80;68.60;;;;;;4921200;29;20494;-83
2023/05/09 11:43:46;;;;;;;1.90;1.80;;;24.80;68.50;;;;;;4949879;29;20489;-83
2023/05/09 11:46:31;;;;;;;2.43;2.13;;;24.90;67.50;;;;;;4925274;29;20513;-83
2023/05/09 11:49:02;;;;;;;1.73;1.63;;;24.90;68.30;;;;;;4920601;29;20571;-83
2023/05/09 11:51:46;;;;;;;2.00;1.90;;;24.90;67.30;;;;;;4925314;29;20486;-82
2023/05/09 11:54:43;;;;;;;2.13;2.03;;;24.90;67.60;;;;;;4941890;29;20495;-82
2023/05/09 11:57:33;;;;;;;1.77;1.67;;;24.50;67.90;;;;;;4940840;29;20455;-80
2023/05/09 12:00:03;;;;;;;1.70;1.60;;;24.50;67.80;;;;;;5046319;23;20498;-82
2023/05/09 12:02:55;;;;;;;2.00;1.90;;;24.40;68.00;;;;;;4912066;29;20462;-83
2023/05/09 12:05:25;;;;;;;3.37;1.97;;;24.50;69.00;;;;;;4909252;29;20467;-84
2023/05/09 12:08:01;;;;;;;1.83;1.73;;;24.60;67.40;;;;;;4915137;29;20579;-84
2023/05/09 12:10:49;;;;;;;2.00;1.90;;;24.60;67.90;;;;;;4915290;29;20516;-84
2023/05/09 12:13:52;;;;;;;4.07;2.00;;;24.40;68.50;;;;;;4902616;29;20516;-83
2023/05/09 12:16:24;;;;;;;2.70;1.60;;;24.40;68.90;;;;;;4896245;29;20495;-82
2023/05/09 12:19:16;;;;;;;1.87;1.77;;;24.10;70.30;;;;;;4915305;29;20466;-81
2023/05/09 12:22:00;;;;;;;2.77;2.20;;;23.90;71.00;;;;;;4896358;29;20971;-83
2023/05/09 12:25:28;;;;;;;2.20;2.00;;;23.90;71.40;;;;;;4903135;29;20458;-82
2023/05/09 12:28:00;;;;;;;3.50;2.50;;;23.90;72.20;;;;;;4910114;29;20491;-82
2023/05/09 12:30:45;;;;;;;3.03;2.73;;;23.70;72.90;;;;;;4899553;29;20573;-82
2023/05/09 12:33:39;;;;;;;2.27;2.07;;;23.70;72.70;;;;;;4905041;29;20464;-83
2023/05/09 12:36:27;;;;;;;6.23;2.27;;;23.60;72.60;;;;;;4905645;29;20459;-83
2023/05/09 12:39:15;;;;;;;2.60;2.40;;;23.40;73.40;;;;;;4907986;29;20490;-82
2023/05/09 12:42:18;;;;;;;2.20;2.00;;;23.20;74.90;;;;;;4894542;29;20511;-83
2023/05/09 12:45:15;;;;;;;3.03;2.40;;;23.20;74.40;;;;;;4877433;29;20451;-83
2023/05/09 12:47:52;;;;;;;2.23;2.13;;;23.30;75.20;;;;;;4937034;29;20470;-83
2023/05/09 12:50:35;;;;;;;2.57;2.37;;;23.60;74.70;;;;;;4938177;29;21012;-83
2023/05/09 12:53:45;;;;;;;2.60;2.40;;;23.60;74.00;;;;;;4945697;29;20533;-84
2023/05/09 12:56:45;;;;;;;2.47;2.27;;;23.60;74.50;;;;;;4935767;29;20512;-84
2023/05/09 12:59:40;;;;;;;2.87;1.90;;;23.50;74.30;;;;;;4947756;28;20457;-84
2023/05/09 13:03:00;;;;;;;3.10;1.90;;;23.40;75.30;;;;;;4948022;28;20478;-84
2023/05/09 13:06:05;;;;;;;;;;;;;;;;;;;;;
2023/05/09 13:08:45;;;;;;;1.47;1.37;;;24.00;66.70;;;;;;4939577;29;20453;-84
2023/05/09 13:11:42;;;;;;;2.03;1.93;;;23.90;67.00;;;;;;4947420;29;20457;-82
2023/05/09 13:14:36;;;;;;;2.17;1.50;;;23.90;66.70;;;;;;4936312;29;20469;-82
2023/05/09 13:17:31;;;;;;;2.00;1.80;;;23.60;67.90;;;;;;4946412;29;20452;-83
2023/05/09 13:20:58;;;;;;;2.20;2.10;;;23.70;68.30;;;;;;4940268;29;20449;-83
2023/05/09 13:24:08;;;;;;;1.90;1.77;;;23.80;67.70;;;;;;4940496;28;20450;-84
2023/05/09 13:27:03;;;;;;;3.80;1.70;;;23.70;67.70;;;;;;4920202;29;20450;-83
2023/05/09 13:30:17;;;;;;;1.70;1.60;;;23.40;69.00;;;;;;4932886;29;20954;-82
2023/05/09 13:32:58;;;;;;;1.60;1.50;;;23.50;69.30;;;;;;4927548;29;20461;-83
2023/05/09 13:36:07;;;;;;;2.10;1.80;;;23.70;68.80;;;;;;4925206;29;21040;-82
2023/05/09 13:38:58;;;;;;;5.50;1.87;;;23.70;67.70;;;;;;4940171;29;20526;-83
2023/05/09 13:41:35;;;;;;;1.53;1.43;;;23.40;68.90;;;;;;4926475;29;20859;-83
2023/05/09 13:44:09;;;;;;;1.63;1.53;;;23.80;67.50;;;;;;4924869;29;20553;-82
2023/05/09 13:46:42;;;;;;;1.70;1.40;;;23.80;67.00;;;;;;4929465;29;20462;-82
2023/05/09 13:49:23;;;;;;;1.87;1.77;;;23.90;67.50;;;;;;4949415;28;20992;-82
2023/05/09 13:52:07;;;;;;;1.57;1.47;;;23.70;67.70;;;;;;4929885;29;20469;-83
2023/05/09 13:54:42;;;;;;;3.30;2.10;;;23.60;67.80;;;;;;4936819;29;20564;-82
2023/05/09 13:57:36;;;;;;;1.53;1.43;;;23.60;67.50;;;;;;4952808;28;20537;-84